This is the latest recevied weather packets stored in our database for station/object SQ5TM-1. If no packets are shown the sender has not sent any weather packets the latest 1 day(s).
| Time | Temp. | Humidity | Pressure | Rain* | Wind** | Luminosity | Snow |
|---|---|---|---|---|---|---|---|
| 1777979520 | 28.89° C | 33% | 996 hPa | - | 0 m/s | 0 W/m² | - |
| 1777978595 | 31.67° C | 32% | 996 hPa | - | 0 m/s | 0 W/m² | - |
| 1777977671 | 27.78° C | 36% | 996 hPa | - | 0 m/s | 0 W/m² | - |
| 1777977470 | 28.89° C | 35% | 996 hPa | - | 0 m/s | 0 W/m² | - |
| 1777976805 | 25.56° C | 40% | 996 hPa | - | 0 m/s | 0 W/m² | - |
| 1777975622 | 26.67° C | 39% | 997 hPa | - | 0 m/s | 0 W/m² | - |
| 1777974778 | 25.56° C | 42% | 997 hPa | - | 0 m/s | 0 W/m² | - |
| 1777973853 | 23.89° C | 43% | 997 hPa | - | 0 m/s | 0 W/m² | - |
| 1777972929 | 24.44° C | 43% | 997 hPa | - | 0 m/s | 0 W/m² | - |
| 1777972429 | 25° C | 43% | 997 hPa | - | 0 m/s | 0 W/m² | - |
| 1777971504 | 23.89° C | 45% | 997 hPa | - | 0 m/s | 0 W/m² | - |
| 1777970580 | 24.44° C | 45% | 997 hPa | - | 0 m/s | 0 W/m² | - |
| 1777969656 | 23.33° C | 46% | 997 hPa | - | 0 m/s | 0 W/m² | - |
| 1777968732 | 21.67° C | 50% | 997 hPa | - | 0 m/s | 0 W/m² | - |
| 1777967807 | 21.67° C | 51% | 997 hPa | - | 0 m/s | 0 W/m² | - |
| 1777966883 | 21.11° C | 52% | 998 hPa | - | 0 m/s | 0 W/m² | - |
| 1777965959 | 20.56° C | 52% | 998 hPa | - | 0 m/s | 0 W/m² | - |
| 1777965034 | 20° C | 55% | 998 hPa | - | 0 m/s | 0 W/m² | - |
| 1777964110 | 19.44° C | 57% | 998 hPa | - | 0 m/s | 0 W/m² | - |
| 1777963185 | 18.89° C | 57% | 998 hPa | - | 0 m/s | 0 W/m² | - |
| 1777962261 | 18.33° C | 59% | 998 hPa | - | 0 m/s | 0 W/m² | - |
| 1777961337 | 17.78° C | 60% | 998 hPa | - | 0 m/s | 0 W/m² | - |
| 1777960412 | 17.22° C | 62% | 998 hPa | - | 0 m/s | 0 W/m² | - |
| 1777959488 | 16.67° C | 63% | 998 hPa | - | 0 m/s | 0 W/m² | - |
| 1777958564 | 16.67° C | 64% | 998 hPa | - | 0 m/s | 0 W/m² | - |
* Rain since midnight (hover to see other rain measurements)
** Current wind speed in m/s (hover to see current wind gust speed)